createdAt,value
2019-04-03T00:01:09.966Z,6.47
2019-04-03T00:03:39.464Z,5.80
2019-04-03T00:06:09.123Z,5.77
2019-04-03T00:08:38.666Z,5.90
2019-04-03T00:11:09.442Z,5.90
2019-04-03T00:13:41.238Z,5.97
2019-04-03T00:16:10.589Z,6.10
2019-04-03T00:18:40.117Z,6.13
2019-04-03T00:21:09.647Z,6.27
2019-04-03T00:23:39.286Z,5.77
2019-04-03T00:26:08.868Z,6.77
2019-04-03T00:28:38.360Z,5.70
2019-04-03T00:31:07.818Z,5.90
2019-04-03T00:33:37.398Z,5.80
2019-04-03T00:36:06.899Z,5.90
2019-04-03T00:38:36.389Z,5.77
2019-04-03T00:41:06.406Z,5.47
2019-04-03T00:43:35.906Z,5.93
2019-04-03T00:46:05.452Z,5.40
2019-04-03T00:48:34.959Z,5.87
2019-04-03T00:51:04.474Z,6.70
2019-04-03T00:53:34.038Z,5.87
2019-04-03T00:56:03.639Z,5.77
2019-04-03T00:58:37.393Z,5.90
2019-04-03T01:01:10.073Z,5.83
2019-04-03T01:03:39.619Z,5.63
2019-04-03T01:06:09.315Z,5.50
2019-04-03T01:08:38.833Z,5.50
2019-04-03T01:11:08.447Z,5.93
2019-04-03T01:13:37.950Z,5.60
2019-04-03T01:16:07.671Z,5.93
2019-04-03T01:18:37.313Z,5.57
2019-04-03T01:21:07.158Z,6.10
2019-04-03T01:23:37.858Z,5.60
2019-04-03T01:26:09.690Z,5.90
2019-04-03T01:28:41.473Z,6.03
2019-04-03T01:31:14.866Z,5.50
2019-04-03T01:33:46.470Z,6.20
2019-04-03T01:36:17.606Z,5.60
2019-04-03T01:38:49.255Z,6.43
2019-04-03T01:41:20.222Z,6.97
2019-04-03T01:43:49.738Z,6.37
2019-04-03T01:46:19.349Z,5.97
2019-04-03T01:48:48.850Z,6.17
2019-04-03T01:51:18.411Z,6.70
2019-04-03T01:53:48.015Z,6.67
2019-04-03T01:56:17.581Z,6.77
2019-04-03T01:58:47.147Z,6.20
2019-04-03T02:01:16.696Z,6.57
2019-04-03T02:03:46.138Z,6.97
2019-04-03T02:06:15.864Z,6.70
2019-04-03T02:08:45.574Z,6.93
2019-04-03T02:11:15.141Z,6.73
2019-04-03T02:13:44.630Z,7.00
2019-04-03T02:16:14.134Z,7.47
2019-04-03T02:18:43.570Z,6.40
2019-04-03T02:21:13.097Z,6.50
2019-04-03T02:23:42.665Z,6.90
2019-04-03T02:26:12.153Z,6.93
2019-04-03T02:28:41.678Z,7.60
2019-04-03T02:31:11.299Z,7.53
2019-04-03T02:33:40.871Z,7.67
2019-04-03T02:36:12.164Z,7.43
2019-04-03T02:38:41.658Z,7.97
2019-04-03T02:41:11.209Z,7.50
2019-04-03T02:43:41.106Z,7.27
2019-04-03T02:46:10.717Z,7.10
2019-04-03T02:48:40.293Z,7.00
2019-04-03T02:51:09.935Z,7.87
2019-04-03T02:53:39.905Z,7.63
2019-04-03T02:56:11.869Z,7.50
2019-04-03T02:58:40.611Z,7.23
2019-04-03T03:01:10.081Z,7.90
2019-04-03T03:03:39.591Z,7.37
2019-04-03T03:06:09.349Z,7.20
2019-04-03T03:08:41.663Z,7.27
2019-04-03T03:11:10.393Z,7.80
2019-04-03T03:13:39.981Z,7.10
2019-04-03T03:16:10.265Z,8.20
2019-04-03T03:18:40.557Z,7.70
2019-04-03T03:21:12.866Z,7.60
2019-04-03T03:23:42.281Z,7.60
2019-04-03T03:26:12.364Z,7.63
2019-04-03T03:28:46.070Z,7.33
2019-04-03T03:31:15.273Z,7.13
2019-04-03T03:33:45.388Z,6.83
2019-04-03T03:36:20.514Z,7.10
2019-04-03T03:38:47.440Z,7.13
2019-04-03T03:41:22.053Z,6.40
2019-04-03T03:43:49.152Z,7.40
2019-04-03T03:46:19.043Z,7.40
2019-04-03T03:48:49.112Z,7.70
2019-04-03T03:51:19.717Z,7.10
2019-04-03T03:53:49.896Z,7.43
2019-04-03T03:56:21.036Z,7.50
2019-04-03T03:58:51.393Z,7.60
2019-04-03T04:01:21.442Z,7.30
2019-04-03T04:03:51.042Z,6.93
2019-04-03T04:06:21.395Z,6.50
2019-04-03T04:08:52.443Z,7.10
2019-04-03T04:11:22.478Z,6.67
2019-04-03T04:13:52.253Z,6.90
2019-04-03T04:16:22.207Z,7.97
2019-04-03T04:18:55.610Z,7.77
2019-04-03T04:21:23.127Z,7.83
2019-04-03T04:23:53.158Z,7.57
2019-04-03T04:26:24.225Z,8.30
2019-04-03T04:28:53.992Z,9.20
2019-04-03T04:31:23.579Z,9.07
2019-04-03T04:33:53.058Z,8.30
2019-04-03T04:36:24.228Z,7.90
2019-04-03T04:38:53.996Z,9.17
2019-04-03T04:41:23.648Z,9.03
2019-04-03T04:43:53.244Z,9.97
2019-04-03T04:46:22.880Z,9.20
2019-04-03T04:48:52.482Z,8.27
2019-04-03T04:51:22.146Z,7.63
2019-04-03T04:53:51.660Z,7.97
2019-04-03T04:56:21.190Z,8.30
2019-04-03T04:58:50.678Z,8.70
2019-04-03T05:01:20.267Z,8.40
2019-04-03T05:03:49.832Z,7.53
2019-04-03T05:06:19.544Z,7.57
2019-04-03T05:08:49.242Z,8.07
2019-04-03T05:11:18.796Z,8.77
2019-04-03T05:13:48.323Z,9.83
2019-04-03T05:16:20.189Z,10.10
2019-04-03T05:18:49.302Z,9.33
2019-04-03T05:21:19.688Z,9.27
2019-04-03T05:23:50.329Z,9.80
2019-04-03T05:26:21.484Z,9.50
2019-04-03T05:28:55.856Z,9.40
2019-04-03T05:31:22.885Z,9.80
2019-04-03T05:33:52.411Z,10.17
2019-04-03T05:36:21.981Z,9.93
2019-04-03T05:38:53.542Z,10.33
2019-04-03T05:41:23.020Z,9.70
2019-04-03T05:43:52.601Z,9.03
2019-04-03T05:46:22.193Z,10.37
2019-04-03T05:48:51.743Z,9.43
2019-04-03T05:51:21.218Z,10.43
2019-04-03T05:53:53.547Z,9.57
2019-04-03T05:56:22.268Z,8.40
2019-04-03T05:58:55.909Z,7.00
2019-04-03T06:01:23.356Z,7.43
2019-04-03T06:03:53.241Z,7.80
2019-04-03T06:06:22.813Z,7.47
2019-04-03T06:08:52.396Z,7.53
2019-04-03T06:11:22.149Z,7.33
2019-04-03T06:13:51.897Z,7.60
2019-04-03T06:16:24.541Z,6.90
2019-04-03T06:18:53.099Z,6.50
2019-04-03T06:21:22.635Z,6.53
2019-04-03T06:23:53.023Z,6.33
2019-04-03T06:26:23.404Z,6.40
2019-04-03T06:28:53.194Z,6.63
2019-04-03T06:31:25.728Z,5.63
2019-04-03T06:33:54.371Z,6.20
2019-04-03T06:36:23.887Z,5.97
2019-04-03T06:38:54.259Z,6.17
2019-04-03T06:41:24.990Z,6.03
2019-04-03T06:43:54.687Z,5.90
2019-04-03T06:46:24.102Z,6.33
2019-04-03T06:48:55.196Z,5.90
2019-04-03T06:51:25.022Z,5.80
2019-04-03T06:53:54.796Z,5.97
2019-04-03T06:56:24.720Z,6.13
2019-04-03T06:58:54.229Z,6.13
2019-04-03T07:01:23.911Z,5.50
2019-04-03T07:03:53.590Z,6.10
2019-04-03T07:06:23.104Z,5.80
2019-04-03T07:08:52.773Z,5.87
2019-04-03T07:11:23.967Z,5.77
2019-04-03T07:13:54.477Z,5.33
2019-04-03T07:16:24.428Z,5.83
2019-04-03T07:18:53.954Z,6.30
2019-04-03T07:21:23.996Z,5.67
2019-04-03T07:23:54.706Z,5.77
2019-04-03T07:26:24.233Z,6.13
2019-04-03T07:28:53.804Z,5.63
2019-04-03T07:31:24.353Z,6.10
2019-04-03T07:33:54.072Z,5.83
2019-04-03T07:36:23.920Z,6.53
2019-04-03T07:38:53.430Z,5.90
2019-04-03T07:41:23.504Z,6.33
2019-04-03T07:43:53.121Z,5.87
2019-04-03T07:46:22.605Z,7.20
2019-04-03T07:48:52.160Z,6.77
2019-04-03T07:51:21.932Z,6.30
2019-04-03T07:53:52.615Z,7.03
2019-04-03T07:56:25.574Z,6.20
2019-04-03T07:58:54.184Z,6.23
2019-04-03T08:01:23.765Z,6.13
2019-04-03T08:03:53.815Z,6.67
2019-04-03T08:06:23.619Z,6.67
2019-04-03T08:09:06.913Z,6.40
2019-04-03T08:11:24.654Z,6.13
2019-04-03T08:13:54.131Z,5.97
2019-04-03T08:16:23.641Z,6.70
2019-04-03T08:18:53.220Z,8.07
2019-04-03T08:21:22.920Z,7.93
2019-04-03T08:23:52.961Z,5.83
2019-04-03T08:26:22.560Z,7.57
2019-04-03T08:28:52.065Z,6.23
2019-04-03T08:31:21.613Z,6.97
2019-04-03T08:33:51.123Z,6.10
2019-04-03T08:36:25.376Z,6.47
2019-04-03T08:38:51.999Z,5.77
2019-04-03T08:41:24.060Z,5.63
2019-04-03T08:43:55.039Z,6.77
2019-04-03T08:46:24.912Z,5.73
2019-04-03T08:48:55.443Z,6.13
2019-04-03T08:51:25.441Z,5.83
2019-04-03T08:53:54.981Z,5.53
2019-04-03T08:56:24.503Z,6.50
2019-04-03T08:58:56.538Z,7.10
2019-04-03T09:01:25.459Z,6.37
2019-04-03T09:03:54.937Z,6.03
2019-04-03T09:06:24.850Z,6.17
2019-04-03T09:08:57.257Z,7.30
2019-04-03T09:11:25.672Z,6.13
2019-04-03T09:13:55.820Z,5.83
2019-04-03T09:16:25.856Z,5.93
2019-04-03T09:18:55.691Z,6.30
2019-04-03T09:21:25.190Z,6.13
2019-04-03T09:23:57.878Z,5.77
2019-04-03T09:26:26.762Z,6.20
2019-04-03T09:28:56.284Z,6.87
2019-04-03T09:31:26.187Z,6.93
2019-04-03T09:33:57.329Z,6.90
2019-04-03T09:36:27.186Z,6.60
2019-04-03T09:38:56.728Z,6.13
2019-04-03T09:41:26.303Z,6.10
2019-04-03T09:43:55.799Z,6.30
2019-04-03T09:46:25.723Z,6.37
2019-04-03T09:48:55.315Z,6.23
2019-04-03T09:51:24.886Z,6.40
2019-04-03T09:53:57.068Z,6.17
2019-04-03T09:56:25.697Z,6.77
2019-04-03T09:58:56.209Z,6.30
2019-04-03T10:01:26.405Z,6.87
2019-04-03T10:03:56.342Z,6.83
2019-04-03T10:06:25.836Z,7.20
2019-04-03T10:08:55.827Z,6.67
2019-04-03T10:11:25.458Z,6.93
2019-04-03T10:13:57.761Z,7.20
2019-04-03T10:16:26.350Z,6.60
2019-04-03T10:18:55.876Z,7.20
2019-04-03T10:21:25.452Z,6.87
2019-04-03T10:23:55.014Z,5.87
2019-04-03T10:26:24.607Z,6.20
2019-04-03T10:28:54.183Z,6.43
2019-04-03T10:31:24.451Z,6.47
2019-04-03T10:33:54.461Z,6.17
2019-04-03T10:36:24.174Z,6.03
2019-04-03T10:38:53.701Z,6.63
2019-04-03T10:41:23.206Z,5.97
2019-04-03T10:43:52.750Z,6.17
2019-04-03T10:46:22.298Z,6.83
2019-04-03T10:48:51.864Z,6.40
2019-04-03T10:51:21.423Z,6.40
2019-04-03T10:53:52.440Z,6.60
2019-04-03T10:56:22.498Z,6.60
2019-04-03T10:58:52.095Z,6.00
2019-04-03T11:01:21.654Z,6.50
2019-04-03T11:03:52.019Z,6.07
2019-04-03T11:06:21.649Z,6.67
2019-04-03T11:08:51.145Z,5.70
2019-04-03T11:11:20.707Z,7.33
2019-04-03T11:13:50.213Z,5.93
2019-04-03T11:16:19.754Z,6.97
2019-04-03T11:18:58.447Z,6.20
2019-04-03T11:21:20.738Z,8.23
2019-04-03T11:23:50.276Z,7.47
2019-04-03T11:26:23.558Z,6.70
2019-04-03T11:28:53.088Z,7.10
2019-04-03T11:31:27.156Z,5.90
2019-04-03T11:33:53.910Z,6.60
2019-04-03T11:36:25.634Z,5.80
2019-04-03T11:39:06.496Z,6.07
2019-04-03T11:44:26.850Z,6.57
2019-04-03T11:47:12.347Z,6.47
2019-04-03T11:49:41.137Z,6.37
2019-04-03T11:52:10.858Z,5.87
2019-04-03T11:54:40.838Z,6.47
2019-04-03T11:57:10.333Z,6.77
2019-04-03T11:59:40.249Z,7.03
2019-04-03T12:02:10.569Z,6.20
2019-04-03T12:04:41.702Z,6.27
2019-04-03T12:07:11.333Z,6.53
2019-04-03T12:09:40.865Z,7.03
2019-04-03T12:12:12.119Z,6.53
2019-04-03T12:14:41.798Z,6.90
2019-04-03T12:17:11.302Z,6.60
2019-04-03T12:19:40.833Z,6.37
2019-04-03T12:22:10.393Z,6.53
2019-04-03T12:24:39.928Z,6.33
2019-04-03T12:27:17.832Z,6.73
2019-04-03T12:29:47.621Z,6.83
2019-04-03T12:32:36.652Z,6.83
2019-04-03T12:35:09.846Z,6.80
2019-04-03T12:37:40.101Z,7.40
2019-04-03T12:40:11.622Z,6.87
2019-04-03T12:42:41.272Z,6.87
2019-04-03T12:45:11.139Z,7.03
2019-04-03T12:47:42.992Z,7.00
2019-04-03T12:50:13.449Z,6.33
2019-04-03T12:52:44.907Z,7.27
2019-04-03T12:55:16.174Z,7.23
2019-04-03T12:57:45.648Z,7.03
2019-04-03T13:00:16.838Z,6.97
2019-04-03T13:02:46.430Z,7.37
2019-04-03T13:05:17.561Z,7.20
2019-04-03T13:07:47.694Z,7.80
2019-04-03T13:10:17.668Z,7.50
2019-04-03T13:12:47.314Z,7.43
2019-04-03T13:15:17.216Z,7.03
2019-04-03T13:17:46.839Z,8.00
2019-04-03T13:20:16.679Z,7.43
2019-04-03T13:22:46.290Z,7.60
2019-04-03T13:25:16.188Z,7.30
2019-04-03T13:27:47.287Z,8.10
2019-04-03T13:30:17.236Z,7.43
2019-04-03T13:32:57.434Z,10.13
2019-04-03T13:35:18.691Z,8.10
2019-04-03T13:37:48.441Z,7.17
2019-04-03T13:40:18.830Z,7.80
2019-04-03T13:42:49.479Z,8.30
2019-04-03T13:45:19.709Z,7.50
2019-04-03T13:47:49.247Z,7.90
2019-04-03T13:50:21.738Z,8.20
2019-04-03T13:52:50.716Z,8.60
2019-04-03T13:55:20.946Z,8.47
2019-04-03T13:57:51.381Z,8.03
2019-04-03T14:00:23.466Z,8.30
2019-04-03T14:02:52.771Z,8.80
2019-04-03T14:05:22.365Z,8.97
2019-04-03T14:07:51.867Z,8.70
2019-04-03T14:10:21.462Z,8.37
2019-04-03T14:12:51.897Z,8.47
2019-04-03T14:15:21.989Z,8.77
2019-04-03T14:17:56.428Z,8.73
2019-04-03T14:20:24.937Z,9.20
2019-04-03T14:22:54.549Z,8.67
2019-04-03T14:25:28.082Z,8.60
2019-04-03T14:27:55.990Z,13.00
2019-04-03T14:30:25.804Z,8.87
2019-04-03T14:32:55.391Z,8.87
2019-04-03T14:35:45.959Z,9.27
2019-04-03T14:37:59.501Z,8.77
2019-04-03T14:40:27.974Z,8.67
2019-04-03T14:42:58.685Z,9.10
2019-04-03T14:45:29.047Z,9.67
2019-04-03T14:47:58.567Z,8.50
2019-04-03T14:50:28.279Z,8.70
2019-04-03T14:52:58.204Z,9.17
2019-04-03T14:55:28.731Z,9.17
2019-04-03T14:57:58.882Z,9.43
2019-04-03T15:00:31.221Z,8.63
2019-04-03T15:03:04.186Z,9.30
2019-04-03T15:05:44.859Z,9.67
2019-04-03T15:08:12.112Z,8.87
2019-04-03T15:10:41.813Z,8.73
2019-04-03T15:13:13.678Z,8.30
2019-04-03T15:15:42.917Z,7.87
2019-04-03T15:18:12.543Z,8.43
2019-04-03T15:20:42.417Z,9.20
2019-04-03T15:23:12.137Z,8.60
2019-04-03T15:25:43.206Z,8.63
2019-04-03T15:28:13.118Z,9.03
2019-04-03T15:30:43.673Z,8.87
2019-04-03T15:33:13.876Z,9.00
2019-04-03T15:35:43.733Z,9.63
2019-04-03T15:38:15.062Z,9.33
2019-04-03T15:40:44.666Z,9.50
2019-04-03T15:43:16.245Z,8.70
2019-04-03T15:45:46.545Z,9.27
2019-04-03T15:48:16.042Z,8.73
2019-04-03T15:50:45.685Z,9.50
2019-04-03T15:53:15.174Z,9.53
2019-04-03T15:55:44.747Z,9.07
2019-04-03T15:58:14.217Z,9.00
2019-04-03T16:00:43.876Z,8.80
2019-04-03T16:03:14.979Z,8.77
2019-04-03T16:05:44.961Z,10.00
2019-04-03T16:08:14.500Z,9.77
2019-04-03T16:10:44.233Z,8.87
2019-04-03T16:13:15.827Z,10.27
2019-04-03T16:15:45.023Z,9.83
2019-04-03T16:18:14.720Z,8.93
2019-04-03T16:20:44.743Z,9.20
2019-04-03T16:23:16.007Z,10.40
2019-04-03T16:25:48.484Z,9.20
2019-04-03T16:28:17.337Z,9.47
2019-04-03T16:30:50.610Z,10.00
2019-04-03T16:33:21.980Z,9.20
2019-04-03T16:35:49.676Z,9.57
2019-04-03T16:38:19.294Z,9.47
2019-04-03T16:40:48.992Z,9.33
2019-04-03T16:43:19.878Z,9.23
2019-04-03T16:45:50.042Z,9.83
2019-04-03T16:48:19.703Z,9.00
2019-04-03T16:50:49.544Z,10.27
2019-04-03T16:53:20.715Z,9.63
2019-04-03T16:55:50.678Z,9.33
2019-04-03T16:58:20.912Z,10.43
2019-04-03T17:00:50.572Z,9.57
2019-04-03T17:03:20.157Z,10.57
2019-04-03T17:05:49.719Z,10.20
2019-04-03T17:08:19.477Z,9.50
2019-04-03T17:10:49.096Z,8.83
2019-04-03T17:13:18.862Z,9.20
2019-04-03T17:15:49.994Z,9.30
2019-04-03T17:18:19.516Z,9.00
2019-04-03T17:20:50.544Z,8.40
2019-04-03T17:23:20.354Z,9.70
2019-04-03T17:25:51.617Z,9.67
2019-04-03T17:28:22.002Z,8.20
2019-04-03T17:30:52.449Z,8.83
2019-04-03T17:33:22.238Z,8.57
2019-04-03T17:35:52.153Z,8.53
2019-04-03T17:38:21.809Z,7.90
2019-04-03T17:40:51.730Z,8.00
2019-04-03T17:43:22.709Z,7.80
2019-04-03T17:45:52.349Z,8.20
2019-04-03T17:48:22.856Z,7.80
2019-04-03T17:50:53.277Z,8.40
2019-04-03T17:53:23.011Z,8.87
2019-04-03T17:55:52.555Z,8.10
2019-04-03T17:58:22.126Z,7.53
2019-04-03T18:00:52.579Z,7.87
2019-04-03T18:03:22.237Z,8.03
2019-04-03T18:05:51.843Z,7.67
2019-04-03T18:08:21.347Z,8.20
2019-04-03T18:10:50.841Z,7.70
2019-04-03T18:13:23.140Z,7.90
2019-04-03T18:15:51.588Z,7.70
2019-04-03T18:18:21.084Z,7.47
2019-04-03T18:20:50.638Z,8.50
2019-04-03T18:23:21.655Z,7.07
2019-04-03T18:25:51.469Z,8.07
2019-04-03T18:28:21.241Z,8.83
2019-04-03T18:30:50.913Z,7.83
2019-04-03T18:33:20.504Z,8.53
2019-04-03T18:35:50.116Z,7.87
2019-04-03T18:38:19.978Z,8.00
2019-04-03T18:40:49.822Z,7.93
2019-04-03T18:43:21.609Z,7.17
2019-04-03T18:45:50.865Z,7.23
2019-04-03T18:48:20.398Z,7.17
2019-04-03T18:50:49.942Z,7.90
2019-04-03T18:53:19.615Z,8.20
2019-04-03T18:55:49.375Z,8.13
2019-04-03T18:58:19.006Z,7.90
2019-04-03T19:00:48.565Z,7.87
2019-04-03T19:03:18.084Z,7.93
2019-04-03T19:05:48.114Z,8.50
2019-04-03T19:08:18.219Z,7.93
2019-04-03T19:10:48.513Z,8.10
2019-04-03T19:13:18.205Z,7.73
2019-04-03T19:15:47.775Z,7.67
2019-04-03T19:18:19.607Z,7.33
2019-04-03T19:20:49.345Z,7.43
2019-04-03T19:23:18.948Z,7.53
2019-04-03T19:25:48.580Z,7.87
2019-04-03T19:28:19.197Z,7.47
2019-04-03T19:30:48.789Z,6.73
2019-04-03T19:33:18.415Z,6.87
2019-04-03T19:35:48.204Z,7.00
2019-04-03T19:38:17.979Z,7.80
2019-04-03T19:40:50.501Z,7.27
2019-04-03T19:43:20.011Z,6.60
2019-04-03T19:45:49.906Z,7.07
2019-04-03T19:48:23.881Z,7.47
2019-04-03T19:50:54.887Z,7.73
2019-04-03T19:53:24.519Z,6.97
2019-04-03T19:55:54.794Z,7.23
2019-04-03T19:58:24.852Z,8.03
2019-04-03T20:00:54.397Z,8.10
2019-04-03T20:03:23.955Z,6.77
2019-04-03T20:05:55.125Z,7.00
2019-04-03T20:08:24.831Z,7.60
2019-04-03T20:10:54.484Z,9.83
2019-04-03T20:13:23.988Z,7.73
2019-04-03T20:15:54.476Z,7.30
2019-04-03T20:18:26.046Z,7.97
2019-04-03T20:20:55.489Z,8.13
2019-04-03T20:23:25.126Z,6.87
2019-04-03T20:25:54.781Z,8.63
2019-04-03T20:28:25.293Z,5.93
2019-04-03T20:30:54.910Z,7.47
2019-04-03T20:33:26.417Z,7.20
2019-04-03T20:35:56.044Z,6.30
2019-04-03T20:38:27.427Z,8.70
2019-04-03T20:40:56.898Z,6.40
2019-04-03T20:43:26.707Z,7.87
2019-04-03T20:45:56.354Z,6.20
2019-04-03T20:48:28.022Z,5.83
2019-04-03T20:50:57.309Z,6.60
2019-04-03T20:53:26.841Z,6.03
2019-04-03T20:55:58.138Z,9.37
2019-04-03T20:58:27.686Z,6.00
2019-04-03T21:01:05.942Z,6.17
2019-04-03T21:03:28.614Z,6.03
2019-04-03T21:05:58.196Z,6.80
2019-04-03T21:08:27.763Z,7.10
2019-04-03T21:10:57.239Z,7.60
2019-04-03T21:13:26.745Z,6.23
2019-04-03T21:15:56.313Z,6.30
2019-04-03T21:18:25.796Z,5.70
2019-04-03T21:20:55.358Z,6.43
2019-04-03T21:23:24.845Z,6.23
2019-04-03T21:25:54.380Z,5.80
2019-04-03T21:28:23.916Z,5.60
2019-04-03T21:30:54.983Z,7.57
2019-04-03T21:33:24.627Z,5.60
2019-04-03T21:35:54.194Z,4.80
2019-04-03T21:38:23.770Z,4.63
2019-04-03T21:40:55.655Z,4.70
2019-04-03T21:43:24.508Z,7.53
2019-04-03T21:45:53.977Z,4.07
2019-04-03T21:48:23.468Z,5.97
2019-04-03T21:50:52.955Z,6.23
2019-04-03T21:53:24.201Z,4.37
2019-04-03T21:55:53.726Z,4.53
2019-04-03T21:58:23.225Z,4.90
2019-04-03T22:01:20.176Z,5.07
2019-04-03T22:03:51.451Z,5.03
2019-04-03T22:06:21.290Z,5.73
2019-04-03T22:08:51.652Z,5.20
2019-04-03T22:11:21.409Z,4.73
2019-04-03T22:13:51.116Z,5.37
2019-04-03T22:16:20.673Z,6.00
2019-04-03T22:18:50.279Z,8.50
2019-04-03T22:21:19.923Z,4.90
2019-04-03T22:23:49.505Z,4.30
2019-04-03T22:26:19.167Z,5.53
2019-04-03T22:28:48.763Z,4.73
2019-04-03T22:31:18.358Z,4.70
2019-04-03T22:33:47.905Z,4.17
2019-04-03T22:36:17.534Z,4.83
2019-04-03T22:38:47.178Z,3.73
2019-04-03T22:41:16.806Z,3.30
2019-04-03T22:43:46.662Z,3.80
2019-04-03T22:46:16.241Z,4.70
2019-04-03T22:48:45.860Z,3.60
2019-04-03T22:51:15.387Z,3.80
2019-04-03T22:53:44.912Z,4.30
2019-04-03T22:56:16.565Z,3.80
2019-04-03T22:58:45.827Z,4.60
2019-04-03T23:01:15.318Z,3.93
2019-04-03T23:03:44.933Z,4.70
2019-04-03T23:06:14.594Z,3.57
2019-04-03T23:08:44.194Z,4.07
2019-04-03T23:11:13.778Z,3.80
2019-04-03T23:13:43.365Z,3.80
2019-04-03T23:16:13.055Z,3.50
2019-04-03T23:18:42.687Z,3.80
2019-04-03T23:21:12.235Z,3.70
2019-04-03T23:23:41.902Z,3.43
2019-04-03T23:26:11.701Z,3.77
2019-04-03T23:28:41.319Z,3.40
2019-04-03T23:31:11.139Z,3.33
2019-04-03T23:33:42.473Z,3.10
2019-04-03T23:36:12.075Z,3.70
2019-04-03T23:38:41.717Z,3.63
2019-04-03T23:41:11.311Z,3.03
2019-04-03T23:43:40.875Z,3.43
2019-04-03T23:46:10.415Z,3.20
2019-04-03T23:48:40.174Z,3.43
2019-04-03T23:51:22.667Z,3.20
2019-04-03T23:53:42.949Z,3.27
2019-04-03T23:56:12.694Z,2.90
2019-04-03T23:58:42.437Z,2.67
